Time;durP1;ratioP1;P1;durP2;ratioP2;P2;SDS_P1;SDS_P2;PMS_P1;PMS_P2;Temp;Humidity;BMP_temperature;BMP_pressure;BME280_temperature;BME280_humidity;BME280_pressure;Samples;Min_cycle;Max_cycle;Signal;HPM_P1;HPM_P2
2022/08/06 00:03:03;;;;;;;5.28;3.35;;;;;;;8.71;100.00;102382.09;10440484;28;20040;-74
2022/08/06 00:08:04;;;;;;;4.75;3.08;;;;;;;8.61;100.00;102388.25;10422571;28;20049;-74
2022/08/06 00:13:04;;;;;;;10.82;4.65;;;;;;;8.49;100.00;102380.38;10440816;28;20033;-74
2022/08/06 00:18:05;;;;;;;5.90;3.65;;;;;;;8.41;100.00;102386.63;10422783;28;20068;-74
2022/08/06 00:23:06;;;;;;;9.27;3.63;;;;;;;8.33;100.00;102388.63;10422228;28;20561;-75
2022/08/06 00:28:10;;;;;;;6.43;4.50;;;;;;;8.22;100.00;102388.66;10421868;28;20031;-74
2022/08/06 00:33:10;;;;;;;7.50;4.63;;;;;;;8.22;100.00;102393.88;10440727;28;20392;-74
2022/08/06 00:38:12;;;;;;;10.13;4.90;;;;;;;8.19;100.00;102393.63;10421394;28;20144;-74
2022/08/06 00:43:12;;;;;;;11.50;4.82;;;;;;;8.26;100.00;102405.47;10389367;28;20063;-74
2022/08/06 00:48:13;;;;;;;8.50;4.65;;;;;;;8.22;100.00;102406.91;10405383;28;20035;-74
2022/08/06 00:53:14;;;;;;;8.65;4.75;;;;;;;8.08;100.00;102407.47;10422531;28;20055;-74
2022/08/06 00:58:14;;;;;;;9.77;5.57;;;;;;;7.96;100.00;102412.59;10421090;28;20043;-74
2022/08/06 01:03:16;;;;;;;8.93;5.50;;;;;;;7.87;100.00;102411.84;10405918;28;20084;-74
2022/08/06 01:08:17;;;;;;;9.25;6.13;;;;;;;7.87;100.00;102415.34;10431108;28;20045;-75
2022/08/06 01:13:17;;;;;;;10.40;6.78;;;;;;;7.89;100.00;102420.69;10421611;28;20040;-74
2022/08/06 01:18:25;;;;;;;11.18;6.95;;;;;;;7.76;100.00;102421.34;10438690;28;20072;-75
2022/08/06 01:24:25;;;;;;;13.13;6.88;;;;;;;7.76;100.00;102423.94;10404990;28;20071;-74
2022/08/06 01:29:32;;;;;;;11.93;7.75;;;;;;;7.72;100.00;102429.69;10232153;29;20043;-74
2022/08/06 01:34:40;;;;;;;11.88;9.73;;;;;;;7.69;100.00;102429.44;10345366;28;20102;-74
2022/08/06 01:39:40;;;;;;;14.52;7.65;;;;;;;7.66;100.00;102432.69;10426842;28;20404;-74
2022/08/06 01:44:42;;;;;;;16.33;7.78;;;;;;;7.59;100.00;102435.56;10411281;28;20040;-74
2022/08/06 01:49:53;;;;;;;13.70;11.27;;;;;;;7.61;100.00;102439.22;10411738;28;20043;-75
2022/08/06 01:54:53;;;;;;;17.90;9.63;;;;;;;7.63;100.00;102450.69;10354640;28;20438;-74
2022/08/06 01:59:54;;;;;;;15.43;8.73;;;;;;;7.63;100.00;102459.41;10400953;28;20037;-74
2022/08/06 02:04:56;;;;;;;12.85;9.20;;;;;;;7.63;100.00;102456.78;10411618;28;20065;-75
2022/08/06 02:09:56;;;;;;;12.02;8.15;;;;;;;7.57;100.00;102450.16;10395085;28;20090;-74
2022/08/06 02:14:59;;;;;;;14.60;9.80;;;;;;;7.49;100.00;102450.41;10427570;28;20120;-74
2022/08/06 02:20:00;;;;;;;15.90;9.75;;;;;;;7.41;100.00;102451.47;10444755;28;20067;-74
2022/08/06 02:25:03;;;;;;;15.38;9.45;;;;;;;7.32;100.00;102455.88;10428211;28;20029;-75
2022/08/06 02:30:03;;;;;;;;;;;;;;;7.25;100.00;102469.16;10409599;28;20037;-74
2022/08/06 02:35:04;;;;;;;17.00;10.40;;;;;;;7.26;100.00;102464.06;10426248;28;19928;-74
2022/08/06 02:40:17;;;;;;;13.07;9.43;;;;;;;7.16;100.00;102464.97;10410021;28;20396;-74
2022/08/06 02:45:21;;;;;;;15.40;9.13;;;;;;;7.09;100.00;102460.00;10427410;28;20047;-74
2022/08/06 02:50:33;;;;;;;19.42;11.45;;;;;;;7.06;100.00;102462.34;10442241;28;20068;-74
2022/08/06 02:55:36;;;;;;;17.60;8.47;;;;;;;7.06;100.00;102467.53;10427172;28;20469;-74
2022/08/06 03:00:37;;;;;;;15.93;10.50;;;;;;;7.05;100.00;102469.22;10409889;28;20037;-74
2022/08/06 03:05:37;;;;;;;16.95;11.77;;;;;;;7.13;100.00;102467.28;10407837;28;20098;-74
2022/08/06 03:10:38;;;;;;;15.95;11.52;;;;;;;7.14;100.00;102470.78;10423391;28;20176;-74
2022/08/06 03:15:38;;;;;;;17.20;11.13;;;;;;;7.07;100.00;102476.25;10427281;28;20060;-74
2022/08/06 03:20:39;;;;;;;20.52;10.32;;;;;;;6.97;100.00;102469.34;10408650;28;20400;-74
2022/08/06 03:25:39;;;;;;;21.17;12.13;;;;;;;6.90;100.00;102474.00;10423858;28;20041;-74
2022/08/06 03:30:40;;;;;;;20.77;11.82;;;;;;;6.96;100.00;102480.53;10406717;28;20043;-74
2022/08/06 03:35:41;;;;;;;20.85;11.88;;;;;;;6.90;100.00;102475.69;10408295;28;20051;-77
2022/08/06 03:40:42;;;;;;;18.20;10.93;;;;;;;6.87;100.00;102488.41;10405866;28;20407;-74
2022/08/06 03:45:53;;;;;;;17.55;12.75;;;;;;;6.89;100.00;102498.19;10404931;28;20067;-75
2022/08/06 03:50:54;;;;;;;17.08;11.70;;;;;;;6.95;100.00;102504.72;10417843;28;20044;-75
2022/08/06 03:55:58;;;;;;;24.23;12.82;;;;;;;6.92;100.00;102505.34;10405814;28;20473;-74
2022/08/06 04:01:03;;;;;;;20.58;11.23;;;;;;;6.93;100.00;102507.19;10421079;28;20033;-74
2022/08/06 04:06:03;;;;;;;19.65;13.40;;;;;;;6.89;100.00;102507.69;10402687;28;20116;-75
2022/08/06 04:11:04;;;;;;;22.83;12.27;;;;;;;6.88;100.00;102509.41;10398059;28;20500;-74
2022/08/06 04:16:05;;;;;;;15.32;10.45;;;;;;;6.90;100.00;102517.31;10405078;28;20487;-74
2022/08/06 04:21:08;;;;;;;16.45;9.90;;;;;;;6.80;100.00;102519.88;10421381;28;20033;-74
2022/08/06 04:26:09;;;;;;;12.73;9.93;;;;;;;6.71;100.00;102533.88;10402229;28;20110;-74
2022/08/06 04:31:10;;;;;;;13.20;8.82;;;;;;;6.60;100.00;102535.53;10419242;28;20086;-75
2022/08/06 04:36:10;;;;;;;15.48;7.90;;;;;;;6.63;100.00;102527.09;10420184;28;20473;-75
2022/08/06 04:41:11;;;;;;;14.88;9.48;;;;;;;6.71;100.00;102536.50;10418933;28;20049;-75
2022/08/06 04:46:11;;;;;;;15.85;9.45;;;;;;;6.74;100.00;102533.28;10418937;28;20037;-74
2022/08/06 04:51:12;;;;;;;15.30;10.00;;;;;;;6.73;100.00;102539.25;10428444;28;20067;-76
2022/08/06 04:56:12;;;;;;;11.75;8.30;;;;;;;6.78;100.00;102535.38;10387134;28;20127;-79
2022/08/06 05:01:16;;;;;;;16.30;9.73;;;;;;;6.90;100.00;102546.88;10400078;28;20435;-76
2022/08/06 05:06:23;;;;;;;13.18;11.57;;;;;;;7.08;100.00;102549.31;10411231;28;20037;-77
2022/08/06 05:11:31;;;;;;;15.85;10.77;;;;;;;7.29;100.00;102547.66;10406483;28;20120;-77
2022/08/06 05:16:33;;;;;;;14.55;10.00;;;;;;;7.50;100.00;102555.53;10422369;28;20427;-78
2022/08/06 05:21:36;;;;;;;;;;;;;;;7.67;100.00;102558.69;10410905;28;20435;-78
2022/08/06 05:26:36;;;;;;;15.38;9.45;;;;;;;7.78;100.00;102557.94;10435116;28;19921;-77
2022/08/06 05:31:39;;;;;;;12.20;9.23;;;;;;;7.91;100.00;102567.72;10427836;28;20124;-76
2022/08/06 05:36:40;;;;;;;13.93;9.73;;;;;;;8.16;100.00;102562.88;10427325;28;20063;-77
2022/08/06 05:41:41;;;;;;;19.27;11.43;;;;;;;8.49;100.00;102569.16;10398368;28;20088;-77
2022/08/06 05:46:54;;;;;;;13.75;9.32;;;;;;;10.12;100.00;102573.31;10407707;28;20041;-77
2022/08/06 05:52:08;;;;;;;13.75;6.15;;;;;;;11.74;100.00;102570.25;10412093;28;20552;-77
2022/08/06 05:57:19;;;;;;;6.35;4.50;;;;;;;13.00;98.13;102570.78;10409561;28;20623;-78
2022/08/06 06:02:19;;;;;;;8.57;4.65;;;;;;;14.14;84.35;102565.59;10406423;28;20053;-77
2022/08/06 06:07:20;;;;;;;11.32;5.45;;;;;;;14.68;81.37;102569.66;10425655;28;20037;-76
2022/08/06 06:12:21;;;;;;;6.10;4.35;;;;;;;15.17;77.20;102565.41;10425290;28;20041;-77
2022/08/06 06:17:46;;;;;;;8.10;3.80;;;;;;;15.70;74.66;102577.09;10427557;28;20413;-77
2022/08/06 06:22:59;;;;;;;7.72;3.63;;;;;;;16.38;72.80;102579.75;10401141;28;20458;-77
2022/08/06 06:28:04;;;;;;;7.88;3.53;;;;;;;18.59;66.17;102582.94;10391005;28;20046;-77
2022/08/06 06:33:19;;;;;;;14.13;5.53;;;;;;;20.03;57.39;102569.03;10408776;28;20492;-77
2022/08/06 06:38:45;;;;;;;6.70;3.90;;;;;;;20.54;56.94;102581.41;10404406;28;20041;-78
2022/08/06 06:43:54;;;;;;;9.80;4.32;;;;;;;21.91;52.18;102577.63;10369192;28;20453;-78
2022/08/06 06:48:59;;;;;;;5.95;3.25;;;;;;;22.62;50.53;102570.59;10402675;28;20482;-77
2022/08/06 06:54:00;;;;;;;7.15;3.10;;;;;;;23.35;45.61;102574.06;10385507;28;20072;-77
2022/08/06 06:59:24;;;;;;;9.20;3.00;;;;;;;23.71;46.33;102576.59;10386376;28;20174;-77
2022/08/06 07:04:25;;;;;;;6.63;3.78;;;;;;;24.26;45.84;102580.34;10386453;28;20045;-77
2022/08/06 07:09:28;;;;;;;5.30;2.27;;;;;;;24.72;43.72;102575.75;10401272;28;20076;-77
2022/08/06 07:14:30;;;;;;;11.32;3.05;;;;;;;24.86;43.27;102581.34;10385218;28;20126;-77
2022/08/06 07:19:31;;;;;;;7.80;3.05;;;;;;;25.24;43.53;102593.50;10368481;28;20041;-77
2022/08/06 07:24:32;;;;;;;6.50;3.10;;;;;;;25.54;40.82;102589.47;10400452;28;20561;-78
2022/08/06 07:29:33;;;;;;;5.50;3.25;;;;;;;25.88;39.65;102600.56;10385591;28;20382;-78
2022/08/06 07:34:34;;;;;;;5.93;2.77;;;;;;;25.30;41.64;102600.69;10383886;28;20040;-77
2022/08/06 07:39:37;;;;;;;7.27;2.60;;;;;;;25.25;41.99;102603.34;10367824;28;20264;-78
2022/08/06 07:44:42;;;;;;;7.82;2.55;;;;;;;25.72;41.26;102606.66;10384231;28;20048;-78
2022/08/06 07:49:43;;;;;;;4.82;2.40;;;;;;;26.22;39.40;102606.31;10399334;28;20504;-78
2022/08/06 07:54:44;;;;;;;4.80;2.55;;;;;;;26.41;37.18;102602.91;10367666;28;20033;-78
2022/08/06 07:59:45;;;;;;;4.13;1.98;;;;;;;26.18;38.04;102603.59;10400009;28;20076;-77
2022/08/06 08:10:05;;;;;;;9.07;2.47;;;;;;;25.90;38.84;102611.31;10400320;28;20033;-77
2022/08/06 08:15:06;;;;;;;6.57;3.17;;;;;;;26.93;36.91;102614.09;10399962;28;20033;-77
2022/08/06 08:20:07;;;;;;;5.22;2.40;;;;;;;27.45;34.58;102604.50;10400516;28;20044;-76
2022/08/06 08:25:09;;;;;;;4.35;1.63;;;;;;;27.04;35.36;102608.78;10420526;28;20040;-78
2022/08/06 08:30:10;;;;;;;4.55;1.80;;;;;;;27.68;34.72;102604.66;10381713;28;20029;-76
2022/08/06 08:35:11;;;;;;;2.53;1.17;;;;;;;26.15;38.25;102614.28;10355059;28;20034;-76
2022/08/06 08:40:12;;;;;;;2.30;1.08;;;;;;;25.48;38.50;102608.13;10397711;28;20042;-77
2022/08/06 08:45:12;;;;;;;4.00;1.43;;;;;;;23.36;42.15;102615.94;10379564;28;20045;-77
2022/08/06 08:50:13;;;;;;;7.27;1.83;;;;;;;24.32;40.48;102610.75;10389155;28;20030;-77
2022/08/06 08:55:15;;;;;;;3.17;1.50;;;;;;;25.87;36.10;102608.59;10396966;28;20120;-77
2022/08/06 09:00:16;;;;;;;2.75;1.50;;;;;;;23.48;42.52;102610.88;10414393;28;20068;-78
2022/08/06 09:05:17;;;;;;;4.50;1.30;;;;;;;21.66;46.14;102610.66;10449576;28;20043;-75
2022/08/06 09:10:17;;;;;;;4.20;1.27;;;;;;;22.07;44.41;102623.34;10430940;28;20056;-77
2022/08/06 09:15:18;;;;;;;2.20;1.17;;;;;;;23.79;38.33;102615.94;10447795;28;20060;-77
2022/08/06 09:20:19;;;;;;;6.27;1.00;;;;;;;24.32;37.68;102618.78;10431248;28;20065;-77
2022/08/06 09:25:41;;;;;;;3.07;0.77;;;;;;;25.00;37.33;102612.78;10429431;28;20477;-78
2022/08/06 09:30:42;;;;;;;3.10;1.25;;;;;;;26.35;35.99;102620.75;10429848;28;20045;-78
2022/08/06 09:35:42;;;;;;;4.80;1.07;;;;;;;24.60;36.02;102621.94;10410856;28;20128;-79
2022/08/06 09:41:03;;;;;;;3.90;1.27;;;;;;;24.50;39.33;102617.31;10427961;28;20068;-77
2022/08/06 09:46:04;;;;;;;2.63;0.90;;;;;;;27.36;34.69;102612.53;10388025;28;20040;-77
2022/08/06 09:51:04;;;;;;;2.92;1.05;;;;;;;29.16;31.31;102610.13;10386822;28;20029;-78
2022/08/06 09:56:07;;;;;;;4.50;0.90;;;;;;;29.19;31.07;102614.63;10387756;28;20034;-78
2022/08/06 10:01:15;;;;;;;1.25;0.90;;;;;;;30.54;28.88;102616.59;10374345;28;20036;-79
2022/08/06 10:06:20;;;;;;;3.03;1.23;;;;;;;30.80;26.73;102612.78;10371433;28;20095;-78
2022/08/06 10:11:33;;;;;;;2.20;0.70;;;;;;;30.33;27.19;102608.69;10386298;28;20091;-78
2022/08/06 10:16:33;;;;;;;1.77;0.80;;;;;;;30.90;28.05;102612.69;10428394;28;20056;-78
2022/08/06 10:21:34;;;;;;;0.73;0.53;;;;;;;30.97;24.63;102616.22;10442664;28;20060;-78
2022/08/06 10:26:34;;;;;;;3.08;0.82;;;;;;;31.24;26.82;102614.16;10427006;28;20067;-79
2022/08/06 10:31:36;;;;;;;2.20;0.65;;;;;;;30.72;26.35;102599.38;10410141;28;20124;-79
2022/08/06 10:36:38;;;;;;;;;;;;;;;30.33;26.31;102610.47;10445476;28;20041;-79
2022/08/06 10:41:40;;;;;;;1.42;1.33;;;;;;;29.44;25.75;102601.97;10444683;28;20012;-78
2022/08/06 10:46:41;;;;;;;2.38;0.80;;;;;;;29.80;28.16;102594.59;10426681;28;20053;-79
2022/08/06 10:51:41;;;;;;;4.20;0.80;;;;;;;29.94;26.56;102599.03;10427889;28;20116;-78
2022/08/06 10:56:42;;;;;;;2.00;0.60;;;;;;;30.21;25.01;102599.78;10425872;28;20116;-80
2022/08/06 11:01:54;;;;;;;1.43;0.83;;;;;;;26.31;31.64;102604.63;10426317;28;20756;-80
2022/08/06 11:07:22;;;;;;;3.28;1.30;;;;;;;29.48;28.15;102587.59;10444756;28;20508;-79
2022/08/06 11:12:32;;;;;;;1.70;0.68;;;;;;;29.93;27.80;102584.66;10443321;28;20115;-80
2022/08/06 11:17:54;;;;;;;2.83;0.80;;;;;;;30.66;23.96;102583.22;10403611;28;20038;-79
2022/08/06 11:22:54;;;;;;;2.28;0.80;;;;;;;30.82;23.87;102592.97;10409227;28;20102;-80
2022/08/06 11:27:56;;;;;;;1.37;0.60;;;;;;;30.64;24.70;102577.81;10424979;28;20078;-79
2022/08/06 11:32:57;;;;;;;1.60;0.82;;;;;;;31.00;24.64;102575.63;10403668;28;20099;-79
2022/08/06 11:37:57;;;;;;;1.50;0.63;;;;;;;31.14;25.45;102577.28;10442662;28;20069;-79
2022/08/06 11:42:58;;;;;;;7.23;1.10;;;;;;;27.58;29.09;102573.25;10440596;28;20036;-78
2022/08/06 11:48:05;;;;;;;2.97;0.53;;;;;;;27.80;28.69;102566.13;10424835;28;20119;-79
2022/08/06 11:53:06;;;;;;;2.17;1.02;;;;;;;28.10;30.92;102567.06;10406567;28;20466;-78
2022/08/06 11:58:15;;;;;;;1.80;0.60;;;;;;;28.56;29.48;102563.53;10422733;28;20112;-80
2022/08/06 12:03:15;;;;;;;1.63;0.68;;;;;;;28.21;28.31;102563.53;10440733;28;20037;-78
2022/08/06 12:08:20;;;;;;;1.43;0.60;;;;;;;25.24;31.50;102574.75;10407956;28;20052;-80
2022/08/06 12:13:39;;;;;;;2.75;0.80;;;;;;;23.12;35.11;102575.31;10406102;28;20411;-79
2022/08/06 12:18:40;;;;;;;1.85;0.73;;;;;;;22.33;37.91;102576.06;10405921;28;20041;-79
2022/08/06 12:23:40;;;;;;;2.97;1.30;;;;;;;24.89;35.78;102565.31;10405603;28;20112;-79
2022/08/06 12:28:41;;;;;;;1.90;0.90;;;;;;;27.70;29.60;102556.25;10405714;28;20043;-79
2022/08/06 12:33:42;;;;;;;3.10;0.80;;;;;;;26.16;31.20;102555.28;10420930;28;20037;-80
2022/08/06 12:38:42;;;;;;;1.73;0.93;;;;;;;27.50;29.56;102550.81;10422664;28;20384;-81
2022/08/06 12:43:46;;;;;;;3.33;0.70;;;;;;;27.19;30.20;102538.09;10423623;28;20403;-78
2022/08/06 12:48:48;;;;;;;3.28;1.30;;;;;;;28.16;26.49;102533.94;10423034;28;20498;-79
2022/08/06 12:53:56;;;;;;;2.78;0.80;;;;;;;28.86;27.25;102524.00;10440094;28;20040;-79
2022/08/06 12:58:57;;;;;;;2.40;0.70;;;;;;;27.47;30.12;102530.16;10422530;28;20033;-79
2022/08/06 13:03:58;;;;;;;0.73;0.60;;;;;;;27.66;30.36;102531.16;10423815;28;20385;-79
2022/08/06 13:08:58;;;;;;;0.70;0.50;;;;;;;29.40;27.89;102522.00;10423003;28;20033;-79
2022/08/06 13:14:02;;;;;;;0.77;0.50;;;;;;;29.77;27.00;102521.78;10422014;28;20433;-79
2022/08/06 13:19:08;;;;;;;2.45;0.70;;;;;;;29.03;25.41;102520.34;10422666;28;20039;-79
2022/08/06 13:24:09;;;;;;;2.22;0.95;;;;;;;28.85;27.38;102507.81;10422686;28;20132;-79
2022/08/06 13:29:23;;;;;;;0.90;0.60;;;;;;;26.61;28.47;102509.13;10422161;28;20087;-80
2022/08/06 13:34:23;;;;;;;1.73;0.50;;;;;;;23.68;36.28;102514.19;10411064;28;20041;-79
2022/08/06 13:39:32;;;;;;;2.10;0.80;;;;;;;21.93;40.05;102527.91;10447198;28;20199;-79
2022/08/06 13:44:34;;;;;;;1.48;1.05;;;;;;;21.10;42.67;102521.09;10414377;28;20040;-79
2022/08/06 13:49:35;;;;;;;4.57;0.80;;;;;;;23.01;40.40;102513.69;10429177;28;20032;-79
2022/08/06 13:54:35;;;;;;;2.03;0.57;;;;;;;26.33;29.75;102509.81;10429808;28;20029;-79
2022/08/06 13:59:37;;;;;;;3.17;1.03;;;;;;;27.78;27.98;102503.34;10428946;28;20039;-79
2022/08/06 14:04:38;;;;;;;1.50;0.60;;;;;;;28.42;26.91;102485.44;10412680;28;20163;-79
2022/08/06 14:09:39;;;;;;;1.23;0.60;;;;;;;29.22;27.47;102488.81;10446020;28;20477;-79
2022/08/06 14:14:39;;;;;;;2.53;0.50;;;;;;;29.33;26.32;102483.38;10411975;28;20068;-79
2022/08/06 14:19:40;;;;;;;2.77;1.20;;;;;;;27.21;28.17;102492.44;10428038;28;20120;-80
2022/08/06 14:24:40;;;;;;;1.03;0.60;;;;;;;23.90;33.73;102495.00;10426869;28;20040;-81
2022/08/06 14:29:41;;;;;;;3.40;1.00;;;;;;;22.04;38.76;102496.22;10446089;28;20178;-79
2022/08/06 14:34:46;;;;;;;6.47;0.97;;;;;;;21.13;40.18;102486.59;10426959;28;20069;-80
2022/08/06 14:39:46;;;;;;;4.10;0.90;;;;;;;20.26;43.38;102486.53;10426340;28;20041;-80
2022/08/06 14:44:57;;;;;;;2.60;0.80;;;;;;;19.73;48.42;102486.44;10425601;28;20037;-80
2022/08/06 14:49:57;;;;;;;0.77;0.50;;;;;;;22.23;41.56;102481.59;10444596;28;20098;-81
2022/08/06 14:54:59;;;;;;;2.60;0.88;;;;;;;24.96;33.36;102469.00;10425172;28;20086;-81
2022/08/06 14:59:59;;;;;;;4.20;0.70;;;;;;;25.83;32.66;102462.88;10409113;28;20037;-80
2022/08/06 15:05:00;;;;;;;0.80;0.70;;;;;;;26.39;31.12;102444.56;10424953;28;20450;-80
2022/08/06 15:10:00;;;;;;;8.37;2.10;;;;;;;26.83;28.12;102440.34;10442240;28;20033;-80
2022/08/06 15:15:04;;;;;;;1.13;0.63;;;;;;;26.53;29.98;102437.47;10437339;28;20057;-78
2022/08/06 15:20:05;;;;;;;2.95;1.42;;;;;;;26.93;28.71;102436.81;10424998;28;20446;-76
2022/08/06 15:25:08;;;;;;;1.33;0.67;;;;;;;26.07;28.92;102437.13;10442587;28;20045;-79
2022/08/06 15:30:09;;;;;;;1.75;0.60;;;;;;;25.73;30.65;102432.38;10424201;28;20064;-79
2022/08/06 15:35:09;;;;;;;2.97;1.17;;;;;;;24.83;29.72;102435.81;10422598;28;20423;-80
2022/08/06 15:40:10;;;;;;;2.13;0.97;;;;;;;23.38;34.52;102441.47;10423816;28;20041;-78
2022/08/06 15:45:13;;;;;;;2.27;0.90;;;;;;;22.46;35.63;102440.38;10397609;28;20037;-81
2022/08/06 15:50:13;;;;;;;3.85;0.90;;;;;;;21.79;37.30;102439.63;10404693;28;20068;-78
2022/08/06 15:55:14;;;;;;;1.67;0.80;;;;;;;21.58;39.09;102445.22;10438034;28;20043;-78
2022/08/06 16:00:16;;;;;;;2.63;1.23;;;;;;;21.11;39.51;102441.28;10412802;28;20110;-78
2022/08/06 16:05:18;;;;;;;2.80;0.98;;;;;;;20.83;41.05;102436.91;10419820;28;20126;-78
2022/08/06 16:10:19;;;;;;;;;;;;;;;21.12;40.50;102428.88;10439511;28;20035;-78
2022/08/06 16:15:19;;;;;;;2.53;0.70;;;;;;;20.99;40.04;102435.59;10440547;28;19923;-78
2022/08/06 16:20:20;;;;;;;1.30;0.50;;;;;;;20.76;42.27;102426.91;10439760;28;20112;-77
2022/08/06 16:25:21;;;;;;;2.30;0.63;;;;;;;20.55;44.03;102438.69;10437957;28;20068;-78
2022/08/06 16:30:22;;;;;;;1.58;0.90;;;;;;;20.33;42.95;102430.03;10438290;28;20040;-77
2022/08/06 16:35:25;;;;;;;1.03;0.70;;;;;;;20.61;43.04;102419.34;10406131;28;20059;-78
2022/08/06 16:40:26;;;;;;;1.85;0.82;;;;;;;20.57;44.04;102421.03;10426276;28;20439;-79
2022/08/06 16:45:27;;;;;;;2.22;0.73;;;;;;;20.52;43.75;102417.31;10436748;28;20045;-78
2022/08/06 16:50:27;;;;;;;3.53;0.98;;;;;;;20.61;43.58;102414.03;10420459;28;20112;-80
2022/08/06 16:55:30;;;;;;;1.98;0.80;;;;;;;20.64;44.00;102411.47;10436679;28;20122;-77
2022/08/06 17:00:31;;;;;;;1.40;0.70;;;;;;;20.67;45.57;102412.47;10439084;28;20036;-78
2022/08/06 17:05:34;;;;;;;2.30;0.65;;;;;;;20.58;46.16;102411.28;10417371;28;20041;-77
2022/08/06 17:10:35;;;;;;;2.05;0.85;;;;;;;20.71;43.40;102402.81;10380248;28;20134;-78
2022/08/06 17:15:36;;;;;;;3.87;0.73;;;;;;;20.61;42.50;102406.06;10384580;28;20037;-80
2022/08/06 17:20:39;;;;;;;2.90;0.70;;;;;;;20.41;42.68;102398.38;10404381;28;20509;-78
2022/08/06 17:25:39;;;;;;;1.27;0.60;;;;;;;20.17;43.10;102394.06;10430475;28;20086;-76
2022/08/06 17:30:40;;;;;;;4.05;1.00;;;;;;;19.92;44.87;102397.69;10446429;28;20039;-76
2022/08/06 17:35:40;;;;;;;4.30;1.55;;;;;;;19.65;47.24;102396.75;10318758;28;20161;-76
2022/08/06 17:40:41;;;;;;;2.40;0.93;;;;;;;19.51;46.37;102403.34;10378696;28;20044;-76
2022/08/06 17:45:42;;;;;;;2.67;0.80;;;;;;;19.18;46.84;102406.59;10364819;28;20109;-76
2022/08/06 17:50:43;;;;;;;2.22;0.80;;;;;;;18.90;47.80;102402.88;10372768;28;20440;-76
2022/08/06 17:55:46;;;;;;;4.53;1.05;;;;;;;18.60;49.42;102407.09;10442626;28;20456;-76
2022/08/06 18:00:47;;;;;;;3.33;0.70;;;;;;;18.28;51.72;102408.44;10442813;28;20067;-76
2022/08/06 18:05:48;;;;;;;2.60;0.70;;;;;;;18.00;53.18;102410.88;10424963;28;20545;-76
2022/08/06 18:10:49;;;;;;;1.13;0.70;;;;;;;17.64;55.48;102420.75;10427931;28;20440;-76
2022/08/06 18:15:49;;;;;;;2.70;0.90;;;;;;;17.22;57.49;102417.19;10424259;28;20047;-76
2022/08/06 18:20:50;;;;;;;4.15;1.00;;;;;;;16.82;61.01;102416.25;10445258;28;20033;-76
2022/08/06 18:25:51;;;;;;;2.92;1.13;;;;;;;16.46;62.32;102416.31;10425753;28;20091;-77
2022/08/06 18:30:51;;;;;;;2.97;1.00;;;;;;;16.31;63.60;102423.50;10423806;28;20106;-76
2022/08/06 18:35:52;;;;;;;3.70;1.25;;;;;;;16.06;65.86;102422.28;10423834;28;20554;-77
2022/08/06 18:40:52;;;;;;;1.83;1.38;;;;;;;15.78;65.85;102421.75;10423437;28;20037;-76
2022/08/06 18:45:54;;;;;;;4.85;1.13;;;;;;;15.55;66.89;102421.47;10423147;28;20132;-76
2022/08/06 18:50:55;;;;;;;3.80;1.07;;;;;;;15.31;69.42;102429.03;10441267;28;20029;-76
2022/08/06 18:55:55;;;;;;;2.65;0.80;;;;;;;15.06;69.78;102430.34;10390224;28;20120;-77
2022/08/06 19:00:56;;;;;;;1.42;1.08;;;;;;;14.72;70.68;102440.75;10441082;28;20033;-77
2022/08/06 19:05:57;;;;;;;3.45;1.20;;;;;;;14.47;71.19;102445.53;10440956;28;20036;-77
2022/08/06 19:10:58;;;;;;;3.75;2.05;;;;;;;14.30;71.95;102443.66;10406942;28;20025;-76
2022/08/06 19:16:01;;;;;;;4.10;0.98;;;;;;;14.19;73.04;102448.28;10405713;28;20082;-76
2022/08/06 19:21:02;;;;;;;4.45;1.27;;;;;;;13.94;74.53;102447.78;10397450;28;20045;-76
2022/08/06 19:26:03;;;;;;;5.20;1.50;;;;;;;13.76;76.22;102450.19;10381764;28;20493;-76
2022/08/06 19:31:04;;;;;;;3.15;1.63;;;;;;;13.48;76.68;102450.28;10347908;28;20489;-76
2022/08/06 19:36:05;;;;;;;3.33;1.20;;;;;;;13.21;77.27;102452.97;10380875;28;20033;-76
2022/08/06 19:41:06;;;;;;;2.88;1.13;;;;;;;12.92;78.68;102446.81;10364209;28;20046;-76
2022/08/06 19:46:06;;;;;;;4.82;1.58;;;;;;;12.78;80.44;102453.78;10364328;28;20065;-76
2022/08/06 19:51:07;;;;;;;4.10;2.42;;;;;;;12.74;81.90;102464.91;10391320;28;20038;-76
2022/08/06 19:56:08;;;;;;;4.03;1.38;;;;;;;12.73;82.79;102465.72;10381750;28;20035;-75
2022/08/06 20:01:09;;;;;;;2.65;1.40;;;;;;;12.68;82.56;102464.53;10383410;28;20950;-75
2022/08/06 20:06:10;;;;;;;2.47;1.42;;;;;;;12.39;82.88;102458.28;10397284;28;20120;-76
2022/08/06 20:11:11;;;;;;;6.35;1.67;;;;;;;12.22;84.44;102468.56;10387105;28;20046;-81
2022/08/06 20:16:12;;;;;;;6.57;1.83;;;;;;;12.19;86.38;102473.63;10398619;28;20481;-75
2022/08/06 20:21:12;;;;;;;7.97;2.08;;;;;;;12.10;85.97;102481.81;10398043;28;20052;-75
2022/08/06 20:26:13;;;;;;;3.40;2.13;;;;;;;12.02;86.93;102477.75;10395702;28;20045;-75
2022/08/06 20:31:13;;;;;;;5.07;2.20;;;;;;;11.93;88.12;102485.84;10381472;28;20057;-74
2022/08/06 20:36:14;;;;;;;3.60;1.70;;;;;;;11.85;87.36;102477.47;10419088;28;20053;-74
2022/08/06 20:41:14;;;;;;;2.85;2.13;;;;;;;11.71;88.16;102480.88;10423868;28;20091;-74
2022/08/06 20:46:15;;;;;;;3.08;1.50;;;;;;;11.66;88.25;102492.75;10448241;28;20488;-74
2022/08/06 20:51:15;;;;;;;4.28;1.98;;;;;;;11.56;89.13;102493.81;10433764;28;20102;-75
2022/08/06 20:56:18;;;;;;;4.25;1.75;;;;;;;11.37;88.96;102494.25;10416830;28;20128;-74
2022/08/06 21:01:19;;;;;;;3.67;2.22;;;;;;;11.26;89.25;102488.25;10389675;28;20058;-78
2022/08/06 21:06:19;;;;;;;3.33;1.95;;;;;;;11.21;89.63;102497.50;10401398;28;20120;-77
2022/08/06 21:11:20;;;;;;;5.53;2.25;;;;;;;11.19;90.07;102496.47;10413153;28;20068;-75
2022/08/06 21:16:21;;;;;;;4.82;2.08;;;;;;;11.16;90.08;102498.06;10411785;28;20085;-75
2022/08/06 21:21:21;;;;;;;4.63;2.88;;;;;;;11.10;90.38;102489.78;10410983;28;20081;-75
2022/08/06 21:26:22;;;;;;;5.35;1.73;;;;;;;10.98;90.76;102500.31;10412585;28;20053;-75
2022/08/06 21:31:23;;;;;;;4.18;2.15;;;;;;;10.98;90.61;102496.75;10396132;28;20066;-74
2022/08/06 21:36:26;;;;;;;7.03;2.70;;;;;;;10.86;90.79;102500.31;10411567;28;20038;-75
2022/08/06 21:41:27;;;;;;;4.68;3.15;;;;;;;10.67;91.57;102502.38;10412242;28;20038;-75
2022/08/06 21:46:28;;;;;;;2.92;2.10;;;;;;;10.51;91.61;102500.34;10411541;28;20385;-75
2022/08/06 21:51:29;;;;;;;6.25;2.72;;;;;;;10.46;92.62;102504.34;10394928;28;20428;-75
2022/08/06 21:56:30;;;;;;;5.00;2.67;;;;;;;10.39;93.03;102505.53;10402726;28;20035;-75
2022/08/06 22:01:30;;;;;;;6.97;4.45;;;;;;;10.49;93.90;102494.97;10387634;28;20435;-74
2022/08/06 22:06:31;;;;;;;2.95;2.10;;;;;;;10.50;93.12;102501.16;10404167;28;20052;-75
2022/08/06 22:11:32;;;;;;;4.30;3.08;;;;;;;10.34;93.29;102497.34;10404938;28;20040;-75
2022/08/06 22:16:38;;;;;;;4.57;3.03;;;;;;;10.19;94.26;102493.59;10386767;28;20042;-74
2022/08/06 22:21:38;;;;;;;4.82;3.75;;;;;;;10.14;94.99;102494.16;10403766;28;20033;-75
2022/08/06 22:26:39;;;;;;;6.00;4.10;;;;;;;10.09;95.30;102499.81;10403923;28;20041;-75
2022/08/06 22:31:39;;;;;;;8.13;5.00;;;;;;;10.05;95.60;102493.47;10404125;28;20112;-75
2022/08/06 22:36:40;;;;;;;9.35;4.25;;;;;;;10.03;95.58;102489.81;10385589;28;20055;-75
2022/08/06 22:41:40;;;;;;;7.13;3.88;;;;;;;10.05;95.85;102484.69;10404580;28;20040;-74
2022/08/06 22:46:41;;;;;;;7.65;4.15;;;;;;;9.95;95.92;102486.59;10403449;28;20152;-75
2022/08/06 22:51:41;;;;;;;8.82;4.88;;;;;;;9.83;95.93;102483.03;10403172;28;20485;-75
2022/08/06 22:56:42;;;;;;;6.93;4.10;;;;;;;9.82;96.90;102476.00;10403844;28;20046;-75
2022/08/06 23:01:43;;;;;;;6.30;3.83;;;;;;;9.81;97.87;102474.19;10387713;28;20478;-74
2022/08/06 23:06:43;;;;;;;5.07;3.55;;;;;;;9.79;97.75;102483.59;10367444;28;20036;-74
2022/08/06 23:11:44;;;;;;;12.80;4.82;;;;;;;9.72;98.28;102478.69;10401774;28;20107;-74
2022/08/06 23:16:44;;;;;;;6.22;4.30;;;;;;;9.58;98.80;102480.25;10384975;28;20559;-75